Terminal Aerodrome Forecast
Issued by NWS Wilmington, OH

Current Version | Previous Version | Graphics & Text | Print | Product List | Glossary On
Versions: 1 2 3 4 5 6 7 8 9 10 11 12 13 14 15 16 17 18 19 20 21 22 23 24
827
FTUS41 KILN 261736
TAFCMH
TAF
KCMH 261736Z 2618/2718 26012KT P6SM BKN040
     FM270200 12006KT P6SM -SHRA VCTS BKN040CB
      TEMPO 2703/2706 2SM TSRA OVC025CB
     FM270800 31007KT P6SM VCSH OVC008
     FM271400 05008KT P6SM SCT025=

USA.gov is the U.S. government's official web portal to all federal, state and local government web resources and services.